Time;durP1;ratioP1;P1;durP2;ratioP2;P2;SDS_P1;SDS_P2;PMS_P1;PMS_P2;Temp;Humidity;BMP_temperature;BMP_pressure;BME280_temperature;BME280_humidity;BME280_pressure;Samples;Min_cycle;Max_cycle;Signal;HPM_P1;HPM_P2
2023/09/06 00:00:26;;;;;;;2.22;1.50;;;;;;;-145.48;100.00;64539.38;5981348;29;20042;-90
2023/09/06 00:03:28;;;;;;;2.88;1.63;;;;;;;-145.48;100.00;64539.38;5970426;29;20137;-89
2023/09/06 00:06:31;;;;;;;1.65;1.55;;;;;;;-145.48;100.00;64539.38;5976248;29;20053;-89
2023/09/06 00:09:33;;;;;;;5.05;2.00;;;;;;;-145.48;100.00;64539.38;5980316;29;20047;-89
2023/09/06 00:12:35;;;;;;;1.77;1.58;;;;;;;-145.48;100.00;64539.38;5977697;29;20050;-89
2023/09/06 00:15:37;;;;;;;4.55;2.00;;;;;;;-145.48;100.00;64539.38;5980228;29;20058;-89
2023/09/06 00:18:39;;;;;;;3.38;1.67;;;;;;;-145.48;100.00;64539.38;5974351;29;20081;-89
2023/09/06 00:21:43;;;;;;;4.10;1.70;;;;;;;-145.48;100.00;64539.38;5976695;29;20046;-90
2023/09/06 00:24:45;;;;;;;4.15;2.20;;;;;;;-145.48;100.00;64539.38;5981048;29;20050;-89
2023/09/06 00:27:50;;;;;;;3.63;1.67;;;;;;;-145.48;100.00;64539.38;5986671;29;20523;-90
2023/09/06 00:30:56;;;;;;;1.60;1.50;;;;;;;-145.48;100.00;64539.38;5980418;29;20043;-89
2023/09/06 00:33:59;;;;;;;4.78;1.63;;;;;;;-145.48;100.00;64539.38;5978383;29;20054;-90
2023/09/06 00:37:02;;;;;;;5.22;1.92;;;;;;;-145.48;100.00;64539.38;5977694;29;20055;-89
2023/09/06 00:40:18;;;;;;;1.55;1.45;;;;;;;-145.48;100.00;64539.38;5975646;29;20047;-89
2023/09/06 00:43:20;;;;;;;2.45;1.40;;;;;;;-145.48;100.00;64539.38;5969074;29;20387;-89
2023/09/06 00:46:22;;;;;;;3.45;1.70;;;;;;;-145.48;100.00;64539.38;5981537;29;20612;-89
2023/09/06 00:49:24;;;;;;;3.10;1.85;;;;;;;-145.48;100.00;64539.38;5961306;29;20055;-90
2023/09/06 00:52:27;;;;;;;4.22;2.13;;;;;;;-145.48;100.00;64539.38;5978318;29;20421;-89
2023/09/06 00:55:29;;;;;;;2.38;2.17;;;;;;;-145.48;100.00;64539.38;5966791;29;20053;-89
2023/09/06 00:58:32;;;;;;;3.13;1.90;;;;;;;-145.48;100.00;64539.38;5984309;29;20046;-89
2023/09/06 01:01:34;;;;;;;3.13;2.10;;;;;;;-145.48;100.00;64539.38;5975445;29;20437;-89
2023/09/06 01:04:37;;;;;;;3.78;1.83;;;;;;;-145.48;100.00;64539.38;5983531;29;20081;-89
2023/09/06 01:07:40;;;;;;;4.55;1.95;;;;;;;-145.48;100.00;64539.38;5985235;29;20505;-89
2023/09/06 01:10:42;;;;;;;2.45;2.17;;;;;;;-145.48;100.00;64539.38;5976542;29;20050;-90
2023/09/06 01:13:46;;;;;;;4.40;2.00;;;;;;;-145.48;100.00;64539.38;5983761;29;20053;-90
2023/09/06 01:16:50;;;;;;;4.05;2.35;;;;;;;-145.48;100.00;64539.38;5982936;29;20540;-90
2023/09/06 01:20:03;;;;;;;4.75;2.17;;;;;;;-145.48;100.00;64539.38;5977047;29;20509;-89
2023/09/06 01:23:30;;;;;;;2.88;1.90;;;;;;;-145.48;100.00;64539.38;5977343;29;20505;-89
2023/09/06 01:26:33;;;;;;;3.53;2.10;;;;;;;-145.48;100.00;64539.38;5988172;29;20081;-89
2023/09/06 01:29:35;;;;;;;4.32;2.13;;;;;;;-145.48;100.00;64539.38;5983771;29;20513;-89
2023/09/06 01:32:37;;;;;;;4.55;2.33;;;;;;;-145.48;100.00;64539.38;5978650;29;20462;-90
2023/09/06 01:35:39;;;;;;;2.78;2.30;;;;;;;-145.48;100.00;64539.38;5979764;29;20042;-89
2023/09/06 01:38:42;;;;;;;3.80;2.50;;;;;;;-145.48;100.00;64539.38;5980616;29;20076;-89
2023/09/06 01:41:44;;;;;;;3.22;2.38;;;;;;;-145.48;100.00;64539.38;5961484;29;20512;-89
2023/09/06 01:44:46;;;;;;;3.67;2.22;;;;;;;-145.48;100.00;64539.38;5971910;29;20058;-89
2023/09/06 01:47:48;;;;;;;3.33;2.30;;;;;;;-145.48;100.00;64539.38;5971426;29;20113;-89
2023/09/06 01:50:50;;;;;;;3.55;2.22;;;;;;;-145.48;100.00;64539.38;5969525;29;20046;-90
2023/09/06 01:53:52;;;;;;;3.13;2.03;;;;;;;-145.48;100.00;64539.38;5967930;29;20424;-89
2023/09/06 01:56:54;;;;;;;2.85;2.30;;;;;;;-145.48;100.00;64539.38;5973571;29;20425;-89
2023/09/06 01:59:56;;;;;;;3.38;2.20;;;;;;;-145.48;100.00;64539.38;5969386;29;20043;-89
2023/09/06 02:02:59;;;;;;;2.63;2.22;;;;;;;-145.48;100.00;64539.38;5981704;29;20103;-89
2023/09/06 02:06:02;;;;;;;3.85;2.75;;;;;;;-145.48;100.00;64539.38;5962968;29;20455;-89
2023/09/06 02:09:04;;;;;;;3.83;2.50;;;;;;;-145.48;100.00;64539.38;5977173;29;20054;-89
2023/09/06 02:12:07;;;;;;;4.10;2.42;;;;;;;-145.48;100.00;64539.38;5981004;29;20042;-89
2023/09/06 02:15:13;;;;;;;2.92;2.20;;;;;;;-145.48;100.00;64539.38;5970091;29;20057;-89
2023/09/06 02:18:17;;;;;;;3.83;2.53;;;;;;;-145.48;100.00;64539.38;5978078;29;20074;-90
2023/09/06 02:21:19;;;;;;;2.53;2.08;;;;;;;-145.48;100.00;64539.38;5974208;29;20042;-89
2023/09/06 02:24:21;;;;;;;3.72;2.05;;;;;;;-145.48;100.00;64539.38;5970616;29;20050;-90
2023/09/06 02:27:23;;;;;;;3.10;2.13;;;;;;;-145.48;100.00;64539.38;5980114;29;20417;-89
2023/09/06 02:30:25;;;;;;;2.72;1.95;;;;;;;-145.48;100.00;64539.38;5980766;29;20077;-89
2023/09/06 02:33:28;;;;;;;2.75;2.45;;;;;;;-145.48;100.00;64539.38;5982724;29;20481;-89
2023/09/06 02:36:30;;;;;;;3.30;2.33;;;;;;;-145.48;100.00;64539.38;5974651;29;20054;-89
2023/09/06 02:39:33;;;;;;;4.28;2.30;;;;;;;-145.48;100.00;64539.38;5979975;29;20537;-89
2023/09/06 02:42:36;;;;;;;3.08;2.20;;;;;;;-145.48;100.00;64539.38;5981185;29;20482;-90
2023/09/06 02:45:38;;;;;;;2.50;2.30;;;;;;;-145.48;100.00;64539.38;5983008;29;20159;-89
2023/09/06 02:48:40;;;;;;;3.67;2.33;;;;;;;-145.48;100.00;64539.38;5982922;29;20110;-89
2023/09/06 02:51:47;;;;;;;2.80;2.42;;;;;;;-145.48;100.00;64539.38;5981408;29;20107;-89
2023/09/06 02:54:48;;;;;;;4.43;2.30;;;;;;;-145.48;100.00;64539.38;5981350;29;20038;-89
2023/09/06 02:57:51;;;;;;;5.22;2.45;;;;;;;-145.48;100.00;64539.38;5981264;29;20084;-89
2023/09/06 03:00:57;;;;;;;2.60;2.40;;;;;;;-145.48;100.00;64539.38;5981735;29;20559;-89
2023/09/06 03:04:06;;;;;;;4.00;2.25;;;;;;;-145.48;100.00;64539.38;5982464;29;20583;-89
2023/09/06 03:07:08;;;;;;;6.57;2.83;;;;;;;-145.48;100.00;64539.38;5977459;29;20050;-89
2023/09/06 03:10:11;;;;;;;5.20;2.47;;;;;;;-145.48;100.00;64539.38;5980774;29;20046;-89
2023/09/06 03:13:15;;;;;;;3.13;2.67;;;;;;;-145.48;100.00;64539.38;5981137;29;20515;-90
2023/09/06 03:16:18;;;;;;;4.13;2.58;;;;;;;-145.48;100.00;64539.38;5968698;29;20066;-89
2023/09/06 03:19:20;;;;;;;13.00;3.15;;;;;;;-145.48;100.00;64539.38;5970931;29;20494;-89
2023/09/06 03:22:23;;;;;;;4.97;2.70;;;;;;;-145.48;100.00;64539.38;5982058;29;20395;-89
2023/09/06 03:25:26;;;;;;;3.10;2.60;;;;;;;-145.48;100.00;64539.38;5969914;29;20081;-89
2023/09/06 03:28:28;;;;;;;3.22;2.67;;;;;;;-145.48;100.00;64539.38;5982339;29;20097;-89
2023/09/06 03:31:34;;;;;;;3.30;2.35;;;;;;;-145.48;100.00;64539.38;5969243;29;20050;-88
2023/09/06 03:34:38;;;;;;;8.50;2.85;;;;;;;-145.48;100.00;64539.38;5980905;29;20458;-89
2023/09/06 03:37:41;;;;;;;3.80;2.60;;;;;;;-145.48;100.00;64539.38;5980692;29;20042;-89
2023/09/06 03:40:49;;;;;;;4.10;2.75;;;;;;;-145.48;100.00;64539.38;5980380;29;20070;-89
2023/09/06 03:43:53;;;;;;;3.95;2.67;;;;;;;-145.48;100.00;64539.38;5973503;29;20042;-89
2023/09/06 03:46:56;;;;;;;4.32;2.50;;;;;;;-145.48;100.00;64539.38;5978628;29;20508;-89
2023/09/06 03:49:59;;;;;;;3.50;2.80;;;;;;;-145.48;100.00;64539.38;5981559;29;20405;-89
2023/09/06 03:53:04;;;;;;;3.88;2.80;;;;;;;-145.48;100.00;64539.38;5981380;29;20577;-89
2023/09/06 03:56:06;;;;;;;4.90;3.00;;;;;;;-145.48;100.00;64539.38;5978799;29;20065;-89
2023/09/06 03:59:13;;;;;;;5.55;2.88;;;;;;;-145.48;100.00;64539.38;5980268;29;20189;-89
2023/09/06 04:02:15;;;;;;;4.03;2.70;;;;;;;-145.48;100.00;64539.38;5979680;29;20119;-89
2023/09/06 04:05:22;;;;;;;4.22;2.70;;;;;;;-145.48;100.00;64539.38;5974175;29;20463;-89
2023/09/06 04:08:28;;;;;;;5.70;2.80;;;;;;;-145.48;100.00;64539.38;5977103;29;20054;-89
2023/09/06 04:11:32;;;;;;;3.75;2.63;;;;;;;-145.48;100.00;64539.38;5964526;29;20050;-89
2023/09/06 04:14:40;;;;;;;4.13;2.83;;;;;;;-145.48;100.00;64539.38;5971653;29;20057;-89
2023/09/06 04:17:43;;;;;;;5.40;2.75;;;;;;;-145.48;100.00;64539.38;5969459;29;20193;-89
2023/09/06 04:20:46;;;;;;;4.07;2.45;;;;;;;-145.48;100.00;64539.38;5974398;29;20061;-89
2023/09/06 04:23:51;;;;;;;2.67;2.42;;;;;;;-145.48;100.00;64539.38;5976244;29;20079;-89
2023/09/06 04:26:54;;;;;;;4.03;2.80;;;;;;;-145.48;100.00;64539.38;5982457;29;20414;-89
2023/09/06 04:29:57;;;;;;;4.00;2.58;;;;;;;-145.48;100.00;64539.38;5979199;29;20524;-89
2023/09/06 04:32:59;;;;;;;4.55;2.80;;;;;;;-145.48;100.00;64539.38;5975351;29;20058;-90
2023/09/06 04:36:03;;;;;;;2.90;2.50;;;;;;;-145.48;100.00;64539.38;5973351;29;20123;-89
2023/09/06 04:39:07;;;;;;;4.05;2.33;;;;;;;-145.48;100.00;64539.38;5963519;29;20047;-89
2023/09/06 04:42:11;;;;;;;3.75;3.03;;;;;;;-145.48;100.00;64539.38;5971652;29;20054;-89
2023/09/06 04:45:15;;;;;;;4.60;2.70;;;;;;;-145.48;100.00;64539.38;5971380;29;20200;-89
2023/09/06 04:48:18;;;;;;;2.78;2.53;;;;;;;-145.48;100.00;64539.38;5973152;29;20057;-89
2023/09/06 04:51:27;;;;;;;2.70;2.50;;;;;;;-145.48;100.00;64539.38;5979312;29;20042;-89
2023/09/06 04:54:32;;;;;;;4.60;2.50;;;;;;;-145.48;100.00;64539.38;5978821;29;20042;-89
2023/09/06 04:57:36;;;;;;;5.53;2.65;;;;;;;-145.48;100.00;64539.38;5980041;29;20083;-89
2023/09/06 05:00:43;;;;;;;2.58;2.35;;;;;;;-145.48;100.00;64539.38;5980096;29;20073;-89
2023/09/06 05:03:45;;;;;;;2.90;2.60;;;;;;;-145.48;100.00;64539.38;5955983;29;20062;-89
2023/09/06 05:06:48;;;;;;;3.83;2.70;;;;;;;-145.48;100.00;64539.38;5975363;29;20410;-89
2023/09/06 05:09:53;;;;;;;6.28;2.90;;;;;;;-145.48;100.00;64539.38;5979213;29;20046;-89
2023/09/06 05:12:57;;;;;;;5.68;2.60;;;;;;;-145.48;100.00;64539.38;5978955;29;20051;-89
2023/09/06 05:16:01;;;;;;;4.85;2.95;;;;;;;-145.48;100.00;64539.38;5969811;29;20494;-89
2023/09/06 05:19:06;;;;;;;6.30;2.95;;;;;;;-145.48;100.00;64539.38;5971770;29;20068;-89
2023/09/06 05:22:11;;;;;;;5.13;3.20;;;;;;;-145.48;100.00;64539.38;5966845;29;20517;-89
2023/09/06 05:25:14;;;;;;;3.28;2.70;;;;;;;-145.48;100.00;64539.38;5978304;29;20055;-89
2023/09/06 05:28:17;;;;;;;4.20;2.55;;;;;;;-145.48;100.00;64539.38;5979963;29;20046;-89
2023/09/06 05:31:24;;;;;;;5.07;3.20;;;;;;;-145.48;100.00;64539.38;5980552;29;20521;-89
2023/09/06 05:34:29;;;;;;;4.47;2.53;;;;;;;-145.48;100.00;64539.38;5966155;29;20489;-89
2023/09/06 05:37:32;;;;;;;3.45;2.60;;;;;;;-145.48;100.00;64539.38;5991014;29;20061;-89
2023/09/06 05:40:35;;;;;;;4.43;2.70;;;;;;;-145.48;100.00;64539.38;5976143;29;20135;-89
2023/09/06 05:43:38;;;;;;;2.83;2.53;;;;;;;-145.48;100.00;64539.38;5983965;29;20050;-89
2023/09/06 05:46:41;;;;;;;5.82;3.08;;;;;;;-145.48;100.00;64539.38;5978963;29;20132;-89
2023/09/06 05:49:46;;;;;;;5.28;3.22;;;;;;;-145.48;100.00;64539.38;5969194;29;20054;-89
2023/09/06 05:52:49;;;;;;;3.63;2.83;;;;;;;-145.48;100.00;64539.38;5975296;29;20062;-89
2023/09/06 05:55:52;;;;;;;4.95;2.50;;;;;;;-145.48;100.00;64539.38;5975706;29;20051;-89
2023/09/06 05:58:54;;;;;;;6.05;2.72;;;;;;;-145.48;100.00;64539.38;5975939;29;20082;-89
2023/09/06 06:01:57;;;;;;;3.72;2.80;;;;;;;-145.48;100.00;64539.38;5968739;29;20628;-89
2023/09/06 06:04:59;;;;;;;3.45;2.40;;;;;;;-145.48;100.00;64539.38;5983695;29;20066;-89
2023/09/06 06:08:02;;;;;;;3.05;2.67;;;;;;;-145.48;100.00;64539.38;5983011;29;20062;-89
2023/09/06 06:11:04;;;;;;;4.35;2.80;;;;;;;-145.48;100.00;64539.38;5984229;29;20054;-89
2023/09/06 06:14:07;;;;;;;3.50;2.75;;;;;;;-145.48;100.00;64539.38;5981703;29;20046;-89
2023/09/06 06:17:11;;;;;;;3.50;2.63;;;;;;;-145.48;100.00;64539.38;5983558;29;20129;-89
2023/09/06 06:20:17;;;;;;;5.50;2.53;;;;;;;-145.48;100.00;64539.38;5985334;29;20058;-89
2023/09/06 06:23:31;;;;;;;9.38;3.10;;;;;;;-145.48;100.00;64539.38;5979661;29;20053;-89
2023/09/06 06:26:33;;;;;;;7.43;2.63;;;;;;;-145.48;100.00;64539.38;5978699;29;20054;-89
2023/09/06 06:29:35;;;;;;;4.05;2.60;;;;;;;-145.48;100.00;64539.38;5979897;29;20043;-89
2023/09/06 06:32:38;;;;;;;3.78;2.58;;;;;;;-145.48;100.00;64539.38;5983392;29;20049;-89
2023/09/06 06:35:40;;;;;;;6.40;2.83;;;;;;;-145.48;100.00;64539.38;5981891;29;20085;-89
2023/09/06 06:38:46;;;;;;;2.63;2.40;;;;;;;-145.48;100.00;64539.38;5983434;29;20061;-89
2023/09/06 06:41:48;;;;;;;2.75;2.28;;;;;;;-145.48;100.00;64539.38;5974778;29;20042;-89
2023/09/06 06:44:50;;;;;;;4.88;2.75;;;;;;;-145.48;100.00;64539.38;5968746;29;20054;-89
2023/09/06 06:47:52;;;;;;;3.63;2.85;;;;;;;-145.48;100.00;64539.38;5981033;29;20061;-89
2023/09/06 06:50:54;;;;;;;5.85;2.85;;;;;;;-145.48;100.00;64539.38;5983992;29;20054;-89
2023/09/06 06:53:56;;;;;;;6.43;2.80;;;;;;;-145.48;100.00;64539.38;5982883;29;20097;-89
2023/09/06 06:56:58;;;;;;;4.82;2.70;;;;;;;-145.48;100.00;64539.38;5981935;29;20042;-89
2023/09/06 07:00:05;;;;;;;3.20;2.72;;;;;;;-145.48;100.00;64539.38;5981762;29;20049;-89
2023/09/06 07:03:09;;;;;;;2.60;2.30;;;;;;;-145.48;100.00;64539.38;5981997;29;20046;-89
2023/09/06 07:06:12;;;;;;;4.38;2.80;;;;;;;-145.48;100.00;64539.38;5982936;29;20603;-89
2023/09/06 07:09:14;;;;;;;3.63;2.47;;;;;;;-145.48;100.00;64539.38;5983202;29;20402;-89
2023/09/06 07:12:16;;;;;;;2.72;2.28;;;;;;;-145.48;100.00;64539.38;5979589;29;20054;-89
2023/09/06 07:15:19;;;;;;;3.08;2.50;;;;;;;-145.48;100.00;64539.38;5976284;29;20282;-89
2023/09/06 07:18:21;;;;;;;4.65;2.90;;;;;;;-145.48;100.00;64539.38;5965950;29;20057;-89
2023/09/06 07:21:24;;;;;;;2.88;2.20;;;;;;;-145.48;100.00;64539.38;5972217;29;20038;-89
2023/09/06 07:24:26;;;;;;;5.93;2.55;;;;;;;-145.48;100.00;64539.38;5974740;29;20055;-89
2023/09/06 07:27:28;;;;;;;4.28;2.70;;;;;;;-145.48;100.00;64539.38;5972801;29;20058;-89
2023/09/06 07:30:32;;;;;;;3.10;2.60;;;;;;;-145.48;100.00;64539.38;5976911;29;20047;-88
2023/09/06 07:33:34;;;;;;;4.55;2.45;;;;;;;-145.48;100.00;64539.38;5970566;29;20051;-89
2023/09/06 07:36:36;;;;;;;2.75;2.33;;;;;;;-145.48;100.00;64539.38;5969015;29;20141;-88
2023/09/06 07:39:38;;;;;;;2.92;2.38;;;;;;;-145.48;100.00;64539.38;5981763;29;20509;-89
2023/09/06 07:42:40;;;;;;;4.28;2.50;;;;;;;-145.48;100.00;64539.38;5976317;29;20067;-89
2023/09/06 07:45:42;;;;;;;3.00;2.45;;;;;;;-145.48;100.00;64539.38;5980778;29;20050;-89
2023/09/06 07:48:44;;;;;;;3.90;2.25;;;;;;;-145.48;100.00;64539.38;5975805;29;20571;-89
2023/09/06 07:51:46;;;;;;;3.72;2.63;;;;;;;-145.48;100.00;64539.38;5984525;29;20046;-89
2023/09/06 07:54:48;;;;;;;5.53;2.72;;;;;;;-145.48;100.00;64539.38;5973292;29;20049;-88
2023/09/06 07:57:50;;;;;;;2.95;2.50;;;;;;;-145.48;100.00;64539.38;5975872;29;20513;-89
2023/09/06 08:00:52;;;;;;;4.50;2.60;;;;;;;-145.48;100.00;64539.38;5979013;29;20050;-89
2023/09/06 08:04:11;;;;;;;2.78;2.30;;;;;;;-145.48;100.00;64539.38;5968902;29;20047;-89
2023/09/06 08:07:13;;;;;;;3.30;2.25;;;;;;;-145.48;100.00;64539.38;5977585;29;20095;-89
2023/09/06 08:10:18;;;;;;;3.17;2.10;;;;;;;-145.48;100.00;64539.38;5977755;29;20054;-89
2023/09/06 08:13:20;;;;;;;4.70;2.30;;;;;;;-145.48;100.00;64539.38;5964186;29;20528;-89
2023/09/06 08:16:22;;;;;;;2.42;2.17;;;;;;;-145.48;100.00;64539.38;5982001;29;20042;-89
2023/09/06 08:19:24;;;;;;;2.38;2.17;;;;;;;-145.48;100.00;64539.38;5980933;29;20049;-89
2023/09/06 08:22:25;;;;;;;2.53;1.80;;;;;;;-145.48;100.00;64539.38;5976997;29;20050;-89
2023/09/06 08:25:46;;;;;;;3.00;2.10;;;;;;;-145.48;100.00;64539.38;5980430;29;20046;-89
2023/09/06 08:28:47;;;;;;;4.38;2.35;;;;;;;-145.48;100.00;64539.38;5978394;29;20038;-89
2023/09/06 08:31:49;;;;;;;4.03;2.08;;;;;;;-145.48;100.00;64539.38;5978744;29;20046;-89
2023/09/06 08:34:52;;;;;;;3.17;2.33;;;;;;;-145.48;100.00;64539.38;5976279;29;20140;-89
2023/09/06 08:37:54;;;;;;;9.90;2.58;;;;;;;-145.48;100.00;64539.38;5978687;29;20050;-89
2023/09/06 08:40:56;;;;;;;4.78;2.10;;;;;;;-145.48;100.00;64539.38;5979494;29;20061;-89
2023/09/06 08:44:03;;;;;;;4.43;2.20;;;;;;;-145.48;100.00;64539.38;5963476;29;20420;-89
2023/09/06 08:47:09;;;;;;;4.13;2.50;;;;;;;-145.48;100.00;64539.38;5964439;29;20102;-89
2023/09/06 08:50:12;;;;;;;3.17;2.10;;;;;;;-145.48;100.00;64539.38;5979123;29;20053;-89
2023/09/06 08:53:18;;;;;;;3.80;2.30;;;;;;;-145.48;100.00;64539.38;5972684;29;20054;-89
2023/09/06 08:56:20;;;;;;;2.08;1.85;;;;;;;-145.48;100.00;64539.38;5965243;29;20051;-88
2023/09/06 08:59:22;;;;;;;2.53;2.08;;;;;;;-145.48;100.00;64539.38;5963547;29;20629;-88
2023/09/06 09:02:24;;;;;;;4.07;2.15;;;;;;;-145.48;100.00;64539.38;5961710;29;20288;-88
2023/09/06 09:05:26;;;;;;;3.38;2.03;;;;;;;-145.48;100.00;64539.38;5976060;29;20388;-88
2023/09/06 09:08:30;;;;;;;3.97;2.50;;;;;;;-145.48;100.00;64539.38;5967170;29;20140;-88
2023/09/06 09:11:33;;;;;;;4.00;2.00;;;;;;;-145.48;100.00;64539.38;5967715;29;20137;-89
2023/09/06 09:14:36;;;;;;;3.75;2.30;;;;;;;-145.48;100.00;64539.38;5982653;29;20562;-88
2023/09/06 09:17:39;;;;;;;4.50;2.70;;;;;;;-145.48;100.00;64539.38;5968574;29;20081;-88
2023/09/06 09:21:03;;;;;;;4.32;2.47;;;;;;;-145.48;100.00;64539.38;5966155;29;20094;-88
2023/09/06 09:24:05;;;;;;;2.58;2.25;;;;;;;-145.48;100.00;64539.38;5966117;29;20137;-88
2023/09/06 09:27:07;;;;;;;5.15;2.83;;;;;;;-145.48;100.00;64539.38;5964436;29;20058;-88
2023/09/06 09:30:11;;;;;;;5.38;2.47;;;;;;;-145.48;100.00;64539.38;5966976;29;20047;-88
2023/09/06 09:33:14;;;;;;;2.45;2.15;;;;;;;-145.48;100.00;64539.38;5973905;29;20072;-88
2023/09/06 09:36:17;;;;;;;5.45;2.55;;;;;;;-145.48;100.00;64539.38;5995596;29;20099;-88
2023/09/06 09:39:25;;;;;;;3.10;2.30;;;;;;;-145.48;100.00;64539.38;5978998;29;20084;-88
2023/09/06 09:42:28;;;;;;;3.97;2.10;;;;;;;-145.48;100.00;64539.38;5970341;29;20137;-88
2023/09/06 09:45:43;;;;;;;3.75;2.10;;;;;;;-145.48;100.00;64539.38;5973585;29;20121;-88
2023/09/06 09:48:45;;;;;;;3.95;2.50;;;;;;;-145.48;100.00;64539.38;5971779;29;20043;-86
2023/09/06 09:51:50;;;;;;;3.70;2.20;;;;;;;-145.48;100.00;64539.38;5976440;29;20049;-90
2023/09/06 09:54:53;;;;;;;2.53;2.15;;;;;;;-145.48;100.00;64539.38;5975936;29;20635;-87
2023/09/06 09:57:56;;;;;;;6.03;2.33;;;;;;;-145.48;100.00;64539.38;5976498;29;20046;-87
2023/09/06 10:00:59;;;;;;;5.78;2.13;;;;;;;-145.48;100.00;64539.38;5965609;29;20075;-87
2023/09/06 10:04:06;;;;;;;8.43;2.97;;;;;;;-145.48;100.00;64539.38;5977438;29;20050;-88
2023/09/06 10:07:11;;;;;;;4.10;2.20;;;;;;;-145.48;100.00;64539.38;5974037;29;20565;-87
2023/09/06 10:10:13;;;;;;;3.63;2.13;;;;;;;-145.48;100.00;64539.38;5983140;29;20054;-88
2023/09/06 10:13:15;;;;;;;3.90;2.30;;;;;;;-145.48;100.00;64539.38;5977048;29;20156;-88
2023/09/06 10:16:19;;;;;;;7.32;2.58;;;;;;;-145.48;100.00;64539.38;5972866;29;20047;-87
2023/09/06 10:19:21;;;;;;;3.25;2.50;;;;;;;-145.48;100.00;64539.38;5978205;29;20155;-88
2023/09/06 10:22:23;;;;;;;5.35;2.50;;;;;;;-145.48;100.00;64539.38;5982126;29;20470;-87
2023/09/06 10:25:28;;;;;;;3.17;2.05;;;;;;;-145.48;100.00;64539.38;5982522;29;20050;-88
2023/09/06 10:28:32;;;;;;;2.83;2.10;;;;;;;-145.48;100.00;64539.38;5983806;29;20077;-87
2023/09/06 10:31:35;;;;;;;2.35;2.13;;;;;;;-145.48;100.00;64539.38;5975861;29;20050;-88
2023/09/06 10:34:45;;;;;;;3.72;1.85;;;;;;;-145.48;100.00;64539.38;5982525;29;20050;-88
2023/09/06 10:38:10;;;;;;;5.47;2.53;;;;;;;-145.48;100.00;64539.38;5971944;29;20425;-87
2023/09/06 10:41:12;;;;;;;3.88;2.20;;;;;;;-145.48;100.00;64539.38;5979228;29;20081;-87
2023/09/06 10:44:14;;;;;;;2.95;1.75;;;;;;;-145.48;100.00;64539.38;5972091;29;20519;-87
2023/09/06 10:47:31;;;;;;;3.83;2.20;;;;;;;-145.48;100.00;64539.38;5963833;29;20077;-87
2023/09/06 10:50:33;;;;;;;3.90;2.00;;;;;;;-145.48;100.00;64539.38;5969298;29;20051;-87
2023/09/06 10:53:38;;;;;;;3.65;2.25;;;;;;;-145.48;100.00;64539.38;5976862;29;20427;-87
2023/09/06 10:56:50;;;;;;;4.00;1.90;;;;;;;-145.48;100.00;64539.38;5969094;29;20054;-87
2023/09/06 10:59:58;;;;;;;5.68;2.20;;;;;;;-145.48;100.00;64539.38;5980485;29;20059;-87
2023/09/06 11:03:06;;;;;;;2.50;2.05;;;;;;;-145.48;100.00;64539.38;5980830;29;20046;-87
2023/09/06 11:06:09;;;;;;;2.78;2.00;;;;;;;-145.48;100.00;64539.38;5976480;29;20100;-87
2023/09/06 11:09:12;;;;;;;4.68;1.60;;;;;;;-145.48;100.00;64539.38;5979202;29;20414;-87
2023/09/06 11:12:15;;;;;;;3.70;1.80;;;;;;;-145.48;100.00;64539.38;5976860;29;20058;-87
2023/09/06 11:15:17;;;;;;;3.30;2.00;;;;;;;-145.48;100.00;64539.38;5969960;29;20180;-87
2023/09/06 11:18:19;;;;;;;6.57;2.13;;;;;;;-145.48;100.00;64539.38;5978564;29;20135;-87
2023/09/06 11:21:28;;;;;;;3.15;2.22;;;;;;;-145.48;100.00;64539.38;5979799;29;20111;-87
2023/09/06 11:24:39;;;;;;;2.05;1.85;;;;;;;-145.48;100.00;64539.38;5972992;29;20117;-87
2023/09/06 11:27:40;;;;;;;4.05;2.00;;;;;;;-145.48;100.00;64539.38;5985645;29;20435;-87
2023/09/06 11:30:45;;;;;;;4.75;2.03;;;;;;;-145.48;100.00;64539.38;5964139;29;20054;-88
2023/09/06 11:33:53;;;;;;;4.95;2.28;;;;;;;-145.48;100.00;64539.38;5976820;29;20062;-88
2023/09/06 11:36:56;;;;;;;3.15;1.75;;;;;;;-145.48;100.00;64539.38;5992387;29;20088;-88
2023/09/06 11:39:59;;;;;;;3.47;2.10;;;;;;;-145.48;100.00;64539.38;5979136;29;20059;-88
2023/09/06 11:43:04;;;;;;;4.63;1.92;;;;;;;-145.48;100.00;64539.38;5964849;29;20043;-88
2023/09/06 11:46:08;;;;;;;3.33;1.77;;;;;;;-145.48;100.00;64539.38;5961045;29;20550;-88
2023/09/06 11:49:11;;;;;;;3.22;1.70;;;;;;;-145.48;100.00;64539.38;5968338;29;20061;-88
2023/09/06 11:52:16;;;;;;;2.50;1.92;;;;;;;-145.48;100.00;64539.38;5961886;29;20076;-88
2023/09/06 11:55:19;;;;;;;2.65;1.50;;;;;;;-145.48;100.00;64539.38;5964751;29;20054;-88
2023/09/06 11:58:23;;;;;;;3.40;1.80;;;;;;;-145.48;100.00;64539.38;5977991;29;20054;-88
2023/09/06 12:01:26;;;;;;;3.30;1.77;;;;;;;-145.48;100.00;64539.38;5974716;29;20272;-88
2023/09/06 12:04:30;;;;;;;3.22;1.70;;;;;;;-145.48;100.00;64539.38;5968483;29;20057;-88
2023/09/06 12:07:33;;;;;;;3.75;1.77;;;;;;;-145.48;100.00;64539.38;5971617;29;20839;-88
2023/09/06 12:10:35;;;;;;;5.45;1.98;;;;;;;-145.48;100.00;64539.38;5977033;29;20466;-88
2023/09/06 12:13:38;;;;;;;3.92;1.92;;;;;;;-145.48;100.00;64539.38;5967933;29;20046;-88
2023/09/06 12:16:41;;;;;;;2.00;1.50;;;;;;;-145.48;100.00;64539.38;5959624;29;20125;-88
2023/09/06 12:19:44;;;;;;;3.72;1.73;;;;;;;-145.48;100.00;64539.38;5973000;29;20054;-88
2023/09/06 12:22:46;;;;;;;4.00;1.70;;;;;;;-145.48;100.00;64539.38;5984347;29;20109;-87
2023/09/06 12:25:48;;;;;;;1.85;1.65;;;;;;;-145.48;100.00;64539.38;5972105;29;20074;-87
2023/09/06 12:28:50;;;;;;;3.58;1.48;;;;;;;-145.48;100.00;64539.38;5981824;29;20058;-87
2023/09/06 12:31:52;;;;;;;4.38;1.65;;;;;;;-145.48;100.00;64539.38;5972041;29;20383;-87
2023/09/06 12:34:54;;;;;;;3.30;1.70;;;;;;;-145.48;100.00;64539.38;5979063;29;20050;-87
2023/09/06 12:37:57;;;;;;;2.22;1.65;;;;;;;-145.48;100.00;64539.38;5980285;29;20183;-87
2023/09/06 12:41:05;;;;;;;2.10;1.55;;;;;;;-145.48;100.00;64539.38;5980219;29;20038;-87
2023/09/06 12:44:07;;;;;;;2.50;1.40;;;;;;;-145.48;100.00;64539.38;5979352;29;20045;-87
2023/09/06 12:47:16;;;;;;;5.00;1.58;;;;;;;-145.48;100.00;64539.38;5977627;29;20441;-87
2023/09/06 12:50:18;;;;;;;2.43;1.73;;;;;;;-145.48;100.00;64539.38;5975440;29;20046;-87
2023/09/06 12:53:21;;;;;;;2.67;1.80;;;;;;;-145.48;100.00;64539.38;5975835;29;20489;-87
2023/09/06 12:56:24;;;;;;;3.72;1.90;;;;;;;-145.48;100.00;64539.38;5981043;29;20132;-87
2023/09/06 12:59:26;;;;;;;1.92;1.40;;;;;;;-145.48;100.00;64539.38;5977058;29;20057;-87
2023/09/06 13:02:28;;;;;;;3.95;1.50;;;;;;;-145.48;100.00;64539.38;5990255;29;20076;-87
2023/09/06 13:05:31;;;;;;;1.80;1.60;;;;;;;-145.48;100.00;64539.38;5978214;29;20074;-87
2023/09/06 13:08:34;;;;;;;2.15;1.48;;;;;;;-145.48;100.00;64539.38;5976793;29;20077;-87
2023/09/06 13:11:36;;;;;;;2.92;1.88;;;;;;;-145.48;100.00;64539.38;5977133;29;20054;-87
2023/09/06 13:14:37;;;;;;;3.10;1.50;;;;;;;-145.48;100.00;64539.38;5979896;29;20498;-87
2023/09/06 13:17:40;;;;;;;3.42;1.98;;;;;;;-145.48;100.00;64539.38;5978035;29;20477;-87
2023/09/06 13:20:42;;;;;;;4.68;1.90;;;;;;;-145.48;100.00;64539.38;5967959;29;20058;-87
2023/09/06 13:23:44;;;;;;;4.18;1.88;;;;;;;-145.48;100.00;64539.38;5972983;29;20042;-87
2023/09/06 13:26:48;;;;;;;6.45;2.08;;;;;;;-145.48;100.00;64539.38;5985811;29;20073;-87
2023/09/06 13:29:55;;;;;;;4.28;1.67;;;;;;;-145.48;100.00;64539.38;5972300;29;20070;-87
2023/09/06 13:32:56;;;;;;;3.50;2.03;;;;;;;-145.48;100.00;64539.38;5979832;29;20055;-87
2023/09/06 13:35:59;;;;;;;4.68;2.53;;;;;;;-145.48;100.00;64539.38;5979519;29;20539;-87
2023/09/06 13:39:00;;;;;;;6.88;2.30;;;;;;;-145.48;100.00;64539.38;5985465;29;20883;-87
2023/09/06 13:42:03;;;;;;;4.47;2.20;;;;;;;-145.48;100.00;64539.38;5969638;29;20475;-87
2023/09/06 13:45:05;;;;;;;7.10;2.22;;;;;;;-145.48;100.00;64539.38;5987454;29;20038;-87
2023/09/06 13:48:09;;;;;;;7.82;2.30;;;;;;;-145.48;100.00;64539.38;5980085;29;20391;-87
2023/09/06 13:51:11;;;;;;;3.25;2.40;;;;;;;-145.48;100.00;64539.38;5977935;29;20061;-87
2023/09/06 13:54:13;;;;;;;3.70;2.33;;;;;;;-145.48;100.00;64539.38;5982235;29;20053;-87